sensor_id;sensor_type;location;lat;lon;timestamp;P1;durP1;ratioP1;P2;durP2;ratioP2
15938;SDS011;8068;51.322;9.450;2023-02-24T00:01:59;23.90;;;11.93;;
15938;SDS011;8068;51.322;9.450;2023-02-24T00:04:29;22.67;;;12.87;;
15938;SDS011;8068;51.322;9.450;2023-02-24T00:06:57;24.23;;;13.20;;
15938;SDS011;8068;51.322;9.450;2023-02-24T00:09:25;23.07;;;12.73;;
15938;SDS011;8068;51.322;9.450;2023-02-24T00:14:18;23.50;;;13.30;;
15938;SDS011;8068;51.322;9.450;2023-02-24T00:16:45;26.13;;;13.30;;
15938;SDS011;8068;51.322;9.450;2023-02-24T00:19:13;21.87;;;12.13;;
15938;SDS011;8068;51.322;9.450;2023-02-24T00:21:41;21.50;;;12.50;;
15938;SDS011;8068;51.322;9.450;2023-02-24T00:24:08;22.23;;;12.60;;
15938;SDS011;8068;51.322;9.450;2023-02-24T00:26:34;20.70;;;13.13;;
15938;SDS011;8068;51.322;9.450;2023-02-24T00:29:03;27.53;;;12.80;;
15938;SDS011;8068;51.322;9.450;2023-02-24T00:31:30;22.80;;;13.00;;
15938;SDS011;8068;51.322;9.450;2023-02-24T00:33:57;23.60;;;12.97;;
15938;SDS011;8068;51.322;9.450;2023-02-24T00:36:25;24.03;;;13.20;;
15938;SDS011;8068;51.322;9.450;2023-02-24T00:38:56;18.43;;;10.80;;
15938;SDS011;8068;51.322;9.450;2023-02-24T00:41:27;11.60;;;9.10;;
15938;SDS011;8068;51.322;9.450;2023-02-24T00:43:56;14.43;;;8.77;;
15938;SDS011;8068;51.322;9.450;2023-02-24T00:46:24;13.50;;;9.13;;
15938;SDS011;8068;51.322;9.450;2023-02-24T00:48:52;14.10;;;9.30;;
15938;SDS011;8068;51.322;9.450;2023-02-24T00:51:21;12.30;;;8.53;;
15938;SDS011;8068;51.322;9.450;2023-02-24T00:53:53;10.33;;;8.17;;
15938;SDS011;8068;51.322;9.450;2023-02-24T00:56:24;11.50;;;9.60;;
15938;SDS011;8068;51.322;9.450;2023-02-24T00:58:54;12.80;;;10.03;;
15938;SDS011;8068;51.322;9.450;2023-02-24T01:01:23;10.57;;;9.10;;
15938;SDS011;8068;51.322;9.450;2023-02-24T01:03:51;12.80;;;9.53;;
15938;SDS011;8068;51.322;9.450;2023-02-24T01:06:22;14.40;;;10.27;;
15938;SDS011;8068;51.322;9.450;2023-02-24T01:08:51;12.43;;;8.90;;
15938;SDS011;8068;51.322;9.450;2023-02-24T01:11:19;16.77;;;9.57;;
15938;SDS011;8068;51.322;9.450;2023-02-24T01:14:07;12.30;;;9.17;;
15938;SDS011;8068;51.322;9.450;2023-02-24T01:16:36;14.90;;;9.70;;
15938;SDS011;8068;51.322;9.450;2023-02-24T01:19:03;16.50;;;9.60;;
15938;SDS011;8068;51.322;9.450;2023-02-24T01:21:32;8.70;;;7.53;;
15938;SDS011;8068;51.322;9.450;2023-02-24T01:23:59;10.27;;;7.50;;
15938;SDS011;8068;51.322;9.450;2023-02-24T01:26:25;8.37;;;7.40;;
15938;SDS011;8068;51.322;9.450;2023-02-24T01:28:52;11.43;;;8.13;;
15938;SDS011;8068;51.322;9.450;2023-02-24T01:31:20;13.93;;;7.50;;
15938;SDS011;8068;51.322;9.450;2023-02-24T01:33:49;12.10;;;7.97;;
15938;SDS011;8068;51.322;9.450;2023-02-24T01:36:17;9.97;;;7.23;;
15938;SDS011;8068;51.322;9.450;2023-02-24T01:38:45;9.67;;;7.03;;
15938;SDS011;8068;51.322;9.450;2023-02-24T01:41:15;12.50;;;6.77;;
15938;SDS011;8068;51.322;9.450;2023-02-24T01:46:25;10.33;;;6.17;;
15938;SDS011;8068;51.322;9.450;2023-02-24T01:48:52;9.30;;;4.83;;
15938;SDS011;8068;51.322;9.450;2023-02-24T01:51:20;7.97;;;4.70;;
15938;SDS011;8068;51.322;9.450;2023-02-24T01:53:47;6.60;;;4.10;;
15938;SDS011;8068;51.322;9.450;2023-02-24T01:56:14;8.70;;;3.80;;
15938;SDS011;8068;51.322;9.450;2023-02-24T01:58:41;16.73;;;4.33;;
15938;SDS011;8068;51.322;9.450;2023-02-24T02:01:07;11.57;;;3.80;;
15938;SDS011;8068;51.322;9.450;2023-02-24T02:03:39;10.70;;;4.07;;
15938;SDS011;8068;51.322;9.450;2023-02-24T02:06:07;17.13;;;4.30;;
15938;SDS011;8068;51.322;9.450;2023-02-24T02:08:37;19.93;;;3.80;;
15938;SDS011;8068;51.322;9.450;2023-02-24T02:11:06;13.03;;;3.80;;
15938;SDS011;8068;51.322;9.450;2023-02-24T02:13:35;8.17;;;3.67;;
15938;SDS011;8068;51.322;9.450;2023-02-24T02:19:42;11.53;;;4.20;;
15938;SDS011;8068;51.322;9.450;2023-02-24T02:24:50;12.33;;;4.33;;
15938;SDS011;8068;51.322;9.450;2023-02-24T02:32:47;10.47;;;4.50;;
15938;SDS011;8068;51.322;9.450;2023-02-24T02:35:18;10.10;;;4.17;;
15938;SDS011;8068;51.322;9.450;2023-02-24T02:40:20;20.20;;;4.40;;
15938;SDS011;8068;51.322;9.450;2023-02-24T02:43:06;11.90;;;5.10;;
15938;SDS011;8068;51.322;9.450;2023-02-24T02:48:19;12.47;;;5.37;;
15938;SDS011;8068;51.322;9.450;2023-02-24T02:50:48;12.40;;;4.50;;
15938;SDS011;8068;51.322;9.450;2023-02-24T02:53:27;16.93;;;5.73;;
15938;SDS011;8068;51.322;9.450;2023-02-24T02:56:00;17.93;;;4.40;;
15938;SDS011;8068;51.322;9.450;2023-02-24T02:58:33;14.23;;;4.50;;
15938;SDS011;8068;51.322;9.450;2023-02-24T03:01:01;18.20;;;5.27;;
15938;SDS011;8068;51.322;9.450;2023-02-24T03:03:33;20.33;;;5.00;;
15938;SDS011;8068;51.322;9.450;2023-02-24T03:06:05;8.73;;;4.23;;
15938;SDS011;8068;51.322;9.450;2023-02-24T03:08:35;13.60;;;4.70;;
15938;SDS011;8068;51.322;9.450;2023-02-24T03:11:03;7.13;;;4.73;;
15938;SDS011;8068;51.322;9.450;2023-02-24T03:13:33;12.17;;;4.60;;
15938;SDS011;8068;51.322;9.450;2023-02-24T03:16:02;7.00;;;4.40;;
15938;SDS011;8068;51.322;9.450;2023-02-24T03:18:33;12.93;;;5.10;;
15938;SDS011;8068;51.322;9.450;2023-02-24T03:21:05;10.43;;;4.43;;
15938;SDS011;8068;51.322;9.450;2023-02-24T03:23:38;14.93;;;4.70;;
15938;SDS011;8068;51.322;9.450;2023-02-24T03:26:29;11.57;;;4.37;;
15938;SDS011;8068;51.322;9.450;2023-02-24T03:31:36;11.77;;;3.80;;
15938;SDS011;8068;51.322;9.450;2023-02-24T03:34:10;7.23;;;3.77;;
15938;SDS011;8068;51.322;9.450;2023-02-24T03:36:39;20.10;;;4.40;;
15938;SDS011;8068;51.322;9.450;2023-02-24T03:39:05;13.40;;;4.00;;
15938;SDS011;8068;51.322;9.450;2023-02-24T03:41:38;12.83;;;4.40;;
15938;SDS011;8068;51.322;9.450;2023-02-24T03:44:09;20.87;;;5.30;;
15938;SDS011;8068;51.322;9.450;2023-02-24T03:46:36;10.77;;;4.67;;
15938;SDS011;8068;51.322;9.450;2023-02-24T03:49:07;13.97;;;5.10;;
15938;SDS011;8068;51.322;9.450;2023-02-24T03:51:35;8.67;;;4.80;;
15938;SDS011;8068;51.322;9.450;2023-02-24T03:54:11;6.80;;;4.20;;
15938;SDS011;8068;51.322;9.450;2023-02-24T03:56:51;12.83;;;5.20;;
15938;SDS011;8068;51.322;9.450;2023-02-24T03:59:33;9.80;;;5.23;;
15938;SDS011;8068;51.322;9.450;2023-02-24T04:02:14;5.10;;;4.30;;
15938;SDS011;8068;51.322;9.450;2023-02-24T04:04:49;15.40;;;5.07;;
15938;SDS011;8068;51.322;9.450;2023-02-24T04:12:31;6.30;;;4.70;;
15938;SDS011;8068;51.322;9.450;2023-02-24T04:17:45;8.17;;;5.23;;
15938;SDS011;8068;51.322;9.450;2023-02-24T04:22:49;9.77;;;5.20;;
15938;SDS011;8068;51.322;9.450;2023-02-24T04:25:17;10.60;;;4.60;;
15938;SDS011;8068;51.322;9.450;2023-02-24T04:27:50;4.60;;;4.10;;
15938;SDS011;8068;51.322;9.450;2023-02-24T04:30:17;9.77;;;4.47;;
15938;SDS011;8068;51.322;9.450;2023-02-24T04:32:44;8.57;;;4.33;;
15938;SDS011;8068;51.322;9.450;2023-02-24T04:35:12;9.00;;;4.30;;
15938;SDS011;8068;51.322;9.450;2023-02-24T04:37:40;11.50;;;4.77;;
15938;SDS011;8068;51.322;9.450;2023-02-24T04:40:13;5.43;;;3.97;;
15938;SDS011;8068;51.322;9.450;2023-02-24T04:42:45;9.70;;;4.47;;
15938;SDS011;8068;51.322;9.450;2023-02-24T04:45:12;4.53;;;3.90;;
15938;SDS011;8068;51.322;9.450;2023-02-24T04:47:38;8.20;;;4.70;;
15938;SDS011;8068;51.322;9.450;2023-02-24T04:50:11;11.57;;;4.60;;
15938;SDS011;8068;51.322;9.450;2023-02-24T04:52:54;6.50;;;4.00;;
15938;SDS011;8068;51.322;9.450;2023-02-24T04:55:23;14.27;;;4.50;;
15938;SDS011;8068;51.322;9.450;2023-02-24T04:57:54;11.10;;;4.77;;
15938;SDS011;8068;51.322;9.450;2023-02-24T05:00:21;14.43;;;4.40;;
15938;SDS011;8068;51.322;9.450;2023-02-24T05:02:52;6.57;;;4.30;;
15938;SDS011;8068;51.322;9.450;2023-02-24T05:05:21;9.73;;;5.60;;
15938;SDS011;8068;51.322;9.450;2023-02-24T05:08:02;7.90;;;4.00;;
15938;SDS011;8068;51.322;9.450;2023-02-24T05:10:35;7.60;;;3.87;;
15938;SDS011;8068;51.322;9.450;2023-02-24T05:13:13;11.90;;;4.50;;
15938;SDS011;8068;51.322;9.450;2023-02-24T05:15:55;10.83;;;4.90;;
15938;SDS011;8068;51.322;9.450;2023-02-24T05:18:28;3.93;;;3.53;;
15938;SDS011;8068;51.322;9.450;2023-02-24T05:21:02;17.23;;;4.37;;
15938;SDS011;8068;51.322;9.450;2023-02-24T05:23:48;4.60;;;3.80;;
15938;SDS011;8068;51.322;9.450;2023-02-24T05:26:17;8.17;;;3.87;;
15938;SDS011;8068;51.322;9.450;2023-02-24T05:28:46;5.73;;;3.53;;
15938;SDS011;8068;51.322;9.450;2023-02-24T05:31:16;10.20;;;5.07;;
15938;SDS011;8068;51.322;9.450;2023-02-24T05:33:50;6.00;;;4.43;;
15938;SDS011;8068;51.322;9.450;2023-02-24T05:36:22;6.53;;;3.30;;
15938;SDS011;8068;51.322;9.450;2023-02-24T05:38:50;5.37;;;4.30;;
15938;SDS011;8068;51.322;9.450;2023-02-24T05:41:39;7.90;;;3.57;;
15938;SDS011;8068;51.322;9.450;2023-02-24T05:44:09;4.13;;;3.77;;
15938;SDS011;8068;51.322;9.450;2023-02-24T05:46:38;4.10;;;3.70;;
15938;SDS011;8068;51.322;9.450;2023-02-24T05:49:06;8.63;;;4.07;;
15938;SDS011;8068;51.322;9.450;2023-02-24T05:51:37;13.00;;;4.40;;
15938;SDS011;8068;51.322;9.450;2023-02-24T05:54:04;6.50;;;4.30;;
15938;SDS011;8068;51.322;9.450;2023-02-24T05:56:36;8.17;;;4.17;;
15938;SDS011;8068;51.322;9.450;2023-02-24T05:59:05;9.70;;;4.37;;
15938;SDS011;8068;51.322;9.450;2023-02-24T06:01:34;12.87;;;4.30;;
15938;SDS011;8068;51.322;9.450;2023-02-24T06:04:03;12.27;;;4.63;;
15938;SDS011;8068;51.322;9.450;2023-02-24T06:06:31;12.03;;;4.23;;
15938;SDS011;8068;51.322;9.450;2023-02-24T06:09:02;13.30;;;4.30;;
15938;SDS011;8068;51.322;9.450;2023-02-24T06:11:35;14.50;;;4.33;;
15938;SDS011;8068;51.322;9.450;2023-02-24T06:14:03;15.50;;;4.83;;
15938;SDS011;8068;51.322;9.450;2023-02-24T06:16:35;10.97;;;4.37;;
15938;SDS011;8068;51.322;9.450;2023-02-24T06:19:03;11.07;;;4.47;;
15938;SDS011;8068;51.322;9.450;2023-02-24T06:21:36;12.83;;;4.43;;
15938;SDS011;8068;51.322;9.450;2023-02-24T06:24:06;12.73;;;5.40;;
15938;SDS011;8068;51.322;9.450;2023-02-24T06:26:39;18.10;;;5.43;;
15938;SDS011;8068;51.322;9.450;2023-02-24T06:29:14;13.50;;;5.50;;
15938;SDS011;8068;51.322;9.450;2023-02-24T06:31:42;20.20;;;6.20;;
15938;SDS011;8068;51.322;9.450;2023-02-24T06:34:09;14.40;;;5.17;;
15938;SDS011;8068;51.322;9.450;2023-02-24T06:36:36;18.93;;;4.70;;
15938;SDS011;8068;51.322;9.450;2023-02-24T06:39:03;19.27;;;4.73;;
15938;SDS011;8068;51.322;9.450;2023-02-24T06:41:33;18.60;;;5.47;;
15938;SDS011;8068;51.322;9.450;2023-02-24T06:44:00;20.57;;;4.77;;
15938;SDS011;8068;51.322;9.450;2023-02-24T06:46:26;17.33;;;6.03;;
15938;SDS011;8068;51.322;9.450;2023-02-24T06:48:52;19.20;;;5.57;;
15938;SDS011;8068;51.322;9.450;2023-02-24T06:51:18;12.93;;;4.87;;
15938;SDS011;8068;51.322;9.450;2023-02-24T06:53:45;19.60;;;5.70;;
15938;SDS011;8068;51.322;9.450;2023-02-24T06:56:13;18.53;;;6.63;;
15938;SDS011;8068;51.322;9.450;2023-02-24T06:58:43;22.57;;;6.37;;
15938;SDS011;8068;51.322;9.450;2023-02-24T07:01:14;10.20;;;5.20;;
15938;SDS011;8068;51.322;9.450;2023-02-24T07:03:42;19.50;;;6.47;;
15938;SDS011;8068;51.322;9.450;2023-02-24T07:06:27;20.70;;;5.40;;
15938;SDS011;8068;51.322;9.450;2023-02-24T07:08:59;19.60;;;6.20;;
15938;SDS011;8068;51.322;9.450;2023-02-24T07:11:30;19.10;;;5.63;;
15938;SDS011;8068;51.322;9.450;2023-02-24T07:13:57;21.50;;;6.43;;
15938;SDS011;8068;51.322;9.450;2023-02-24T07:16:23;21.07;;;6.90;;
15938;SDS011;8068;51.322;9.450;2023-02-24T07:18:57;16.53;;;5.90;;
15938;SDS011;8068;51.322;9.450;2023-02-24T07:21:24;32.93;;;7.30;;
15938;SDS011;8068;51.322;9.450;2023-02-24T07:23:51;17.50;;;6.00;;
15938;SDS011;8068;51.322;9.450;2023-02-24T07:26:25;31.27;;;6.40;;
15938;SDS011;8068;51.322;9.450;2023-02-24T07:28:52;27.77;;;6.30;;
15938;SDS011;8068;51.322;9.450;2023-02-24T07:31:23;18.00;;;5.80;;
15938;SDS011;8068;51.322;9.450;2023-02-24T07:33:51;19.80;;;6.43;;
15938;SDS011;8068;51.322;9.450;2023-02-24T07:36:18;21.40;;;5.63;;
15938;SDS011;8068;51.322;9.450;2023-02-24T07:38:48;15.77;;;5.90;;
15938;SDS011;8068;51.322;9.450;2023-02-24T07:41:17;18.23;;;5.30;;
15938;SDS011;8068;51.322;9.450;2023-02-24T07:43:48;20.83;;;5.53;;
15938;SDS011;8068;51.322;9.450;2023-02-24T07:46:27;15.70;;;4.97;;
15938;SDS011;8068;51.322;9.450;2023-02-24T07:48:54;31.30;;;9.40;;
15938;SDS011;8068;51.322;9.450;2023-02-24T07:51:24;37.93;;;12.00;;
15938;SDS011;8068;51.322;9.450;2023-02-24T07:53:52;22.07;;;7.00;;
15938;SDS011;8068;51.322;9.450;2023-02-24T07:56:21;12.50;;;6.20;;
15938;SDS011;8068;51.322;9.450;2023-02-24T07:58:52;20.23;;;5.47;;
15938;SDS011;8068;51.322;9.450;2023-02-24T08:01:31;12.87;;;4.30;;
15938;SDS011;8068;51.322;9.450;2023-02-24T08:04:04;12.80;;;5.30;;
15938;SDS011;8068;51.322;9.450;2023-02-24T08:06:36;13.50;;;4.50;;
15938;SDS011;8068;51.322;9.450;2023-02-24T08:09:05;17.50;;;4.87;;
15938;SDS011;8068;51.322;9.450;2023-02-24T08:11:42;10.30;;;4.00;;
15938;SDS011;8068;51.322;9.450;2023-02-24T08:14:11;11.17;;;4.57;;
15938;SDS011;8068;51.322;9.450;2023-02-24T08:16:39;15.77;;;4.00;;
15938;SDS011;8068;51.322;9.450;2023-02-24T08:19:10;13.70;;;4.70;;
15938;SDS011;8068;51.322;9.450;2023-02-24T08:21:38;10.77;;;4.07;;
15938;SDS011;8068;51.322;9.450;2023-02-24T08:24:06;15.93;;;3.83;;
15938;SDS011;8068;51.322;9.450;2023-02-24T08:26:43;13.10;;;4.17;;
15938;SDS011;8068;51.322;9.450;2023-02-24T08:29:10;10.13;;;4.10;;
15938;SDS011;8068;51.322;9.450;2023-02-24T08:31:37;7.63;;;3.80;;
15938;SDS011;8068;51.322;9.450;2023-02-24T08:34:04;8.03;;;4.13;;
15938;SDS011;8068;51.322;9.450;2023-02-24T08:36:30;6.37;;;3.60;;
15938;SDS011;8068;51.322;9.450;2023-02-24T08:38:56;16.77;;;4.23;;
15938;SDS011;8068;51.322;9.450;2023-02-24T08:41:24;4.97;;;3.47;;
15938;SDS011;8068;51.322;9.450;2023-02-24T08:44:10;6.90;;;3.37;;
15938;SDS011;8068;51.322;9.450;2023-02-24T08:46:37;7.53;;;3.13;;
15938;SDS011;8068;51.322;9.450;2023-02-24T08:49:05;4.53;;;3.00;;
15938;SDS011;8068;51.322;9.450;2023-02-24T08:51:36;14.10;;;3.40;;
15938;SDS011;8068;51.322;9.450;2023-02-24T08:54:09;13.60;;;3.40;;
15938;SDS011;8068;51.322;9.450;2023-02-24T08:56:40;9.23;;;2.50;;
15938;SDS011;8068;51.322;9.450;2023-02-24T08:59:17;8.13;;;2.60;;
15938;SDS011;8068;51.322;9.450;2023-02-24T09:02:06;4.93;;;2.60;;
15938;SDS011;8068;51.322;9.450;2023-02-24T09:04:58;12.23;;;2.93;;
15938;SDS011;8068;51.322;9.450;2023-02-24T09:07:29;9.67;;;2.87;;
15938;SDS011;8068;51.322;9.450;2023-02-24T09:10:00;3.83;;;2.50;;
15938;SDS011;8068;51.322;9.450;2023-02-24T09:12:28;5.83;;;2.37;;
15938;SDS011;8068;51.322;9.450;2023-02-24T09:14:56;8.93;;;3.40;;
15938;SDS011;8068;51.322;9.450;2023-02-24T09:17:26;3.37;;;2.70;;
15938;SDS011;8068;51.322;9.450;2023-02-24T09:20:13;8.03;;;3.00;;
15938;SDS011;8068;51.322;9.450;2023-02-24T09:23:02;4.67;;;2.53;;
15938;SDS011;8068;51.322;9.450;2023-02-24T09:25:31;6.17;;;2.60;;
15938;SDS011;8068;51.322;9.450;2023-02-24T09:28:23;4.60;;;2.20;;
15938;SDS011;8068;51.322;9.450;2023-02-24T09:30:55;5.23;;;2.63;;
15938;SDS011;8068;51.322;9.450;2023-02-24T09:35:52;5.53;;;2.23;;
15938;SDS011;8068;51.322;9.450;2023-02-24T09:38:37;8.37;;;2.57;;
15938;SDS011;8068;51.322;9.450;2023-02-24T09:41:29;12.60;;;2.17;;
15938;SDS011;8068;51.322;9.450;2023-02-24T09:44:05;7.23;;;2.30;;
15938;SDS011;8068;51.322;9.450;2023-02-24T09:46:48;12.97;;;2.50;;
15938;SDS011;8068;51.322;9.450;2023-02-24T09:49:29;6.80;;;4.63;;
15938;SDS011;8068;51.322;9.450;2023-02-24T09:52:09;4.03;;;2.53;;
15938;SDS011;8068;51.322;9.450;2023-02-24T09:54:42;5.00;;;1.93;;
15938;SDS011;8068;51.322;9.450;2023-02-24T09:57:30;9.33;;;2.20;;
15938;SDS011;8068;51.322;9.450;2023-02-24T10:00:05;3.60;;;2.23;;
15938;SDS011;8068;51.322;9.450;2023-02-24T10:05:48;3.13;;;1.80;;
15938;SDS011;8068;51.322;9.450;2023-02-24T10:08:37;6.33;;;1.73;;
15938;SDS011;8068;51.322;9.450;2023-02-24T10:11:12;4.70;;;1.83;;
15938;SDS011;8068;51.322;9.450;2023-02-24T10:13:47;3.10;;;1.90;;
15938;SDS011;8068;51.322;9.450;2023-02-24T10:16:22;3.93;;;1.67;;
15938;SDS011;8068;51.322;9.450;2023-02-24T10:25:17;2.47;;;2.00;;
15938;SDS011;8068;51.322;9.450;2023-02-24T10:30:29;5.83;;;2.10;;
15938;SDS011;8068;51.322;9.450;2023-02-24T10:33:17;5.00;;;1.70;;
15938;SDS011;8068;51.322;9.450;2023-02-24T10:35:50;3.07;;;1.73;;
15938;SDS011;8068;51.322;9.450;2023-02-24T10:38:23;2.13;;;1.53;;
15938;SDS011;8068;51.322;9.450;2023-02-24T10:40:58;10.07;;;1.80;;
15938;SDS011;8068;51.322;9.450;2023-02-24T10:43:30;7.83;;;6.00;;
15938;SDS011;8068;51.322;9.450;2023-02-24T10:46:03;4.60;;;2.83;;
15938;SDS011;8068;51.322;9.450;2023-02-24T10:48:55;3.40;;;2.20;;
15938;SDS011;8068;51.322;9.450;2023-02-24T10:51:31;4.27;;;1.87;;
15938;SDS011;8068;51.322;9.450;2023-02-24T10:54:06;5.80;;;2.10;;
15938;SDS011;8068;51.322;9.450;2023-02-24T10:57:07;4.37;;;1.87;;
15938;SDS011;8068;51.322;9.450;2023-02-24T11:00:13;3.10;;;1.70;;
15938;SDS011;8068;51.322;9.450;2023-02-24T11:03:05;2.70;;;1.93;;
15938;SDS011;8068;51.322;9.450;2023-02-24T11:05:38;3.40;;;1.87;;
15938;SDS011;8068;51.322;9.450;2023-02-24T11:08:26;5.53;;;2.10;;
15938;SDS011;8068;51.322;9.450;2023-02-24T11:11:19;3.07;;;1.83;;
15938;SDS011;8068;51.322;9.450;2023-02-24T11:13:55;4.63;;;1.97;;
15938;SDS011;8068;51.322;9.450;2023-02-24T11:22:34;8.97;;;3.87;;
15938;SDS011;8068;51.322;9.450;2023-02-24T11:25:16;1.90;;;1.80;;
15938;SDS011;8068;51.322;9.450;2023-02-24T11:27:51;4.57;;;2.47;;
15938;SDS011;8068;51.322;9.450;2023-02-24T11:30:36;1.93;;;1.67;;
15938;SDS011;8068;51.322;9.450;2023-02-24T11:38:37;4.83;;;1.93;;
15938;SDS011;8068;51.322;9.450;2023-02-24T11:41:23;2.70;;;1.83;;
15938;SDS011;8068;51.322;9.450;2023-02-24T11:44:32;4.07;;;2.57;;
15938;SDS011;8068;51.322;9.450;2023-02-24T11:47:11;2.90;;;2.00;;
15938;SDS011;8068;51.322;9.450;2023-02-24T11:49:39;6.23;;;5.40;;
15938;SDS011;8068;51.322;9.450;2023-02-24T11:52:19;12.43;;;6.73;;
15938;SDS011;8068;51.322;9.450;2023-02-24T11:54:58;7.27;;;6.53;;
15938;SDS011;8068;51.322;9.450;2023-02-24T11:57:40;8.63;;;5.10;;
15938;SDS011;8068;51.322;9.450;2023-02-24T12:00:15;6.83;;;2.90;;
15938;SDS011;8068;51.322;9.450;2023-02-24T12:02:52;3.73;;;3.03;;
15938;SDS011;8068;51.322;9.450;2023-02-24T12:05:30;5.10;;;3.93;;
15938;SDS011;8068;51.322;9.450;2023-02-24T12:10:51;4.00;;;3.43;;
15938;SDS011;8068;51.322;9.450;2023-02-24T12:13:29;4.20;;;2.87;;
15938;SDS011;8068;51.322;9.450;2023-02-24T12:16:14;6.10;;;3.20;;
15938;SDS011;8068;51.322;9.450;2023-02-24T12:18:49;8.23;;;3.13;;
15938;SDS011;8068;51.322;9.450;2023-02-24T12:21:25;5.67;;;3.07;;
15938;SDS011;8068;51.322;9.450;2023-02-24T12:24:11;4.60;;;3.30;;
15938;SDS011;8068;51.322;9.450;2023-02-24T12:26:45;5.17;;;3.30;;
15938;SDS011;8068;51.322;9.450;2023-02-24T12:40:52;4.73;;;3.00;;
15938;SDS011;8068;51.322;9.450;2023-02-24T12:46:20;3.77;;;3.50;;
15938;SDS011;8068;51.322;9.450;2023-02-24T12:59:40;8.50;;;3.17;;
15938;SDS011;8068;51.322;9.450;2023-02-24T13:04:53;5.83;;;2.97;;
15938;SDS011;8068;51.322;9.450;2023-02-24T13:07:33;3.30;;;2.97;;
15938;SDS011;8068;51.322;9.450;2023-02-24T13:12:41;3.40;;;3.20;;
15938;SDS011;8068;51.322;9.450;2023-02-24T13:15:24;8.03;;;4.17;;
15938;SDS011;8068;51.322;9.450;2023-02-24T13:17:59;4.43;;;3.30;;
15938;SDS011;8068;51.322;9.450;2023-02-24T13:20:34;5.57;;;3.80;;
15938;SDS011;8068;51.322;9.450;2023-02-24T13:23:20;3.73;;;3.43;;
15938;SDS011;8068;51.322;9.450;2023-02-24T13:25:52;4.10;;;3.70;;
15938;SDS011;8068;51.322;9.450;2023-02-24T13:31:08;6.67;;;3.20;;
15938;SDS011;8068;51.322;9.450;2023-02-24T13:33:41;3.30;;;3.00;;
15938;SDS011;8068;51.322;9.450;2023-02-24T13:36:14;7.00;;;3.50;;
15938;SDS011;8068;51.322;9.450;2023-02-24T13:41:37;3.57;;;3.10;;
15938;SDS011;8068;51.322;9.450;2023-02-24T13:44:26;8.43;;;4.00;;
15938;SDS011;8068;51.322;9.450;2023-02-24T13:52:54;5.07;;;3.60;;
15938;SDS011;8068;51.322;9.450;2023-02-24T14:01:11;4.13;;;3.83;;
15938;SDS011;8068;51.322;9.450;2023-02-24T14:03:45;5.23;;;3.93;;
15938;SDS011;8068;51.322;9.450;2023-02-24T14:06:32;4.83;;;4.30;;
15938;SDS011;8068;51.322;9.450;2023-02-24T14:09:03;6.97;;;4.47;;
15938;SDS011;8068;51.322;9.450;2023-02-24T14:11:35;5.33;;;3.67;;
15938;SDS011;8068;51.322;9.450;2023-02-24T14:14:06;5.77;;;4.20;;
15938;SDS011;8068;51.322;9.450;2023-02-24T14:16:43;5.20;;;3.10;;
15938;SDS011;8068;51.322;9.450;2023-02-24T14:19:17;4.70;;;4.30;;
15938;SDS011;8068;51.322;9.450;2023-02-24T14:21:53;6.23;;;4.40;;
15938;SDS011;8068;51.322;9.450;2023-02-24T14:24:22;5.00;;;4.30;;
15938;SDS011;8068;51.322;9.450;2023-02-24T14:26:51;7.93;;;4.43;;
15938;SDS011;8068;51.322;9.450;2023-02-24T14:29:28;8.57;;;5.23;;
15938;SDS011;8068;51.322;9.450;2023-02-24T14:31:57;6.77;;;4.73;;
15938;SDS011;8068;51.322;9.450;2023-02-24T14:34:29;8.47;;;4.73;;
15938;SDS011;8068;51.322;9.450;2023-02-24T14:37:00;5.23;;;4.33;;
15938;SDS011;8068;51.322;9.450;2023-02-24T14:39:31;10.30;;;5.20;;
15938;SDS011;8068;51.322;9.450;2023-02-24T14:44:39;5.70;;;5.10;;
15938;SDS011;8068;51.322;9.450;2023-02-24T14:47:10;7.53;;;6.80;;
15938;SDS011;8068;51.322;9.450;2023-02-24T14:49:39;5.30;;;4.80;;
15938;SDS011;8068;51.322;9.450;2023-02-24T14:52:09;6.60;;;6.00;;
15938;SDS011;8068;51.322;9.450;2023-02-24T14:54:47;6.13;;;5.77;;
15938;SDS011;8068;51.322;9.450;2023-02-24T14:57:27;5.17;;;4.67;;
15938;SDS011;8068;51.322;9.450;2023-02-24T15:00:00;5.37;;;5.07;;
15938;SDS011;8068;51.322;9.450;2023-02-24T15:02:41;8.20;;;7.47;;
15938;SDS011;8068;51.322;9.450;2023-02-24T15:05:10;13.90;;;10.60;;
15938;SDS011;8068;51.322;9.450;2023-02-24T15:07:37;8.33;;;7.40;;
15938;SDS011;8068;51.322;9.450;2023-02-24T15:10:15;6.13;;;5.40;;
15938;SDS011;8068;51.322;9.450;2023-02-24T15:12:55;4.77;;;4.37;;
15938;SDS011;8068;51.322;9.450;2023-02-24T15:15:35;5.37;;;4.87;;
15938;SDS011;8068;51.322;9.450;2023-02-24T15:18:10;4.47;;;4.27;;
15938;SDS011;8068;51.322;9.450;2023-02-24T15:20:57;4.00;;;3.77;;
15938;SDS011;8068;51.322;9.450;2023-02-24T15:23:34;3.37;;;3.27;;
15938;SDS011;8068;51.322;9.450;2023-02-24T15:26:06;3.60;;;3.50;;
15938;SDS011;8068;51.322;9.450;2023-02-24T15:28:44;4.23;;;3.70;;
15938;SDS011;8068;51.322;9.450;2023-02-24T15:31:26;3.30;;;3.17;;
15938;SDS011;8068;51.322;9.450;2023-02-24T15:33:59;4.60;;;4.40;;
15938;SDS011;8068;51.322;9.450;2023-02-24T15:36:32;4.20;;;4.00;;
15938;SDS011;8068;51.322;9.450;2023-02-24T15:39:05;3.17;;;3.07;;
15938;SDS011;8068;51.322;9.450;2023-02-24T15:41:39;3.23;;;3.13;;
15938;SDS011;8068;51.322;9.450;2023-02-24T15:44:25;3.43;;;3.13;;
15938;SDS011;8068;51.322;9.450;2023-02-24T15:46:57;3.40;;;3.20;;
15938;SDS011;8068;51.322;9.450;2023-02-24T15:49:30;4.67;;;4.47;;
15938;SDS011;8068;51.322;9.450;2023-02-24T15:52:00;2.93;;;2.83;;
15938;SDS011;8068;51.322;9.450;2023-02-24T15:54:34;3.90;;;3.70;;
15938;SDS011;8068;51.322;9.450;2023-02-24T15:57:05;4.40;;;4.10;;
15938;SDS011;8068;51.322;9.450;2023-02-24T15:59:35;3.17;;;2.97;;
15938;SDS011;8068;51.322;9.450;2023-02-24T16:02:10;3.73;;;3.53;;
15938;SDS011;8068;51.322;9.450;2023-02-24T16:04:38;3.63;;;3.43;;
15938;SDS011;8068;51.322;9.450;2023-02-24T16:07:20;7.80;;;7.00;;
15938;SDS011;8068;51.322;9.450;2023-02-24T16:09:48;5.63;;;5.33;;
15938;SDS011;8068;51.322;9.450;2023-02-24T16:12:16;7.13;;;6.50;;
15938;SDS011;8068;51.322;9.450;2023-02-24T16:14:47;12.70;;;8.40;;
15938;SDS011;8068;51.322;9.450;2023-02-24T16:17:34;4.80;;;4.40;;
15938;SDS011;8068;51.322;9.450;2023-02-24T16:20:11;4.07;;;3.77;;
15938;SDS011;8068;51.322;9.450;2023-02-24T16:22:45;4.37;;;4.17;;
15938;SDS011;8068;51.322;9.450;2023-02-24T16:25:16;4.80;;;4.50;;
15938;SDS011;8068;51.322;9.450;2023-02-24T16:27:42;4.80;;;4.50;;
15938;SDS011;8068;51.322;9.450;2023-02-24T16:30:16;5.13;;;4.73;;
15938;SDS011;8068;51.322;9.450;2023-02-24T16:32:47;4.60;;;4.40;;
15938;SDS011;8068;51.322;9.450;2023-02-24T16:35:13;3.97;;;3.77;;
15938;SDS011;8068;51.322;9.450;2023-02-24T16:37:39;3.50;;;3.40;;
15938;SDS011;8068;51.322;9.450;2023-02-24T16:40:14;3.43;;;3.23;;
15938;SDS011;8068;51.322;9.450;2023-02-24T16:42:51;2.70;;;2.50;;
15938;SDS011;8068;51.322;9.450;2023-02-24T16:45:18;2.70;;;2.60;;
15938;SDS011;8068;51.322;9.450;2023-02-24T16:47:46;3.00;;;2.80;;
15938;SDS011;8068;51.322;9.450;2023-02-24T16:50:22;4.10;;;3.90;;
15938;SDS011;8068;51.322;9.450;2023-02-24T16:53:07;4.10;;;3.90;;
15938;SDS011;8068;51.322;9.450;2023-02-24T16:55:43;3.27;;;3.07;;
15938;SDS011;8068;51.322;9.450;2023-02-24T16:58:14;3.90;;;3.60;;
15938;SDS011;8068;51.322;9.450;2023-02-24T17:00:45;3.67;;;3.37;;
15938;SDS011;8068;51.322;9.450;2023-02-24T17:03:16;5.23;;;3.43;;
15938;SDS011;8068;51.322;9.450;2023-02-24T17:05:49;4.07;;;3.87;;
15938;SDS011;8068;51.322;9.450;2023-02-24T17:08:21;3.80;;;3.20;;
15938;SDS011;8068;51.322;9.450;2023-02-24T17:10:48;4.17;;;3.80;;
15938;SDS011;8068;51.322;9.450;2023-02-24T17:13:20;5.10;;;4.70;;
15938;SDS011;8068;51.322;9.450;2023-02-24T17:15:51;4.43;;;3.67;;
15938;SDS011;8068;51.322;9.450;2023-02-24T17:18:23;4.10;;;3.80;;
15938;SDS011;8068;51.322;9.450;2023-02-24T17:20:50;4.23;;;3.93;;
15938;SDS011;8068;51.322;9.450;2023-02-24T17:23:22;4.83;;;4.40;;
15938;SDS011;8068;51.322;9.450;2023-02-24T17:25:54;4.07;;;3.73;;